Portada
METAR-TAF:

METAR-TAF

Aeroports :

Iaroslavl, Rússia

latitud: 57-33-38N, longitud: 040-09-27E, altitud: 87 m

Observació

L'informe es va fer fa 45 minuts, a les 02:00 UTC
Vent 2 kt del Sud/Sud-Est
Temperatura 10°C
Humitat 100%
Pressió 1025 hPa
Visibilitat 10 km o més

METAR: UUDL 270200Z AUTO 16001MPS 9999 NCD 10/10 Q1025 R23/////// RMK QFE760

Hora: 05:45 (02:45 UTC)

Pronòstic

L'informe es va fer fa 12 hores i 45 minuts, a les 14:00 UTC
Pronòstic vàlid del 26 a les 15 UTC al 27 a les 15 UTC
Vent 6 kt del Est/Sud-Est
Visibilitat 10 km o més
Cel ennuvolat a una alçada de 4000 ft
Probabilitat 40% :
Temporalment
l' 26 a les 20 UTC al 27 a les 04 UTC
Visibilitat: 0800 m
a una alçada de 400 ft
boira

TAF: UUDL 261400Z 2615/2715 12003MPS 9999 BKN040 TX18/2615Z TN06/2702Z PROB40 TEMPO 2620/2704 0800 FG VV004

Observacions i pronòstics meteorològics de més de 4000 aeroports (METAR i TAF).

Les estacions disponibles són els punts grocs i vermells al mapa.

Posi el ratolí al punt desitjat per veure el nom de l'estació.

Feu clic per veure les observacions i els pronòstics meteorològics.

Per canviar el mapa: feu clic els botons verds amb una creu de color negre per apropar; al botó verd amb un guió per allunyar la imatge; o en les fletxes verdes per a mapes adjacents.


METAR-TAF: